createdAt,value
2023-02-11T00:01:25.366Z,24.70
2023-02-11T00:03:53.798Z,24.80
2023-02-11T00:06:22.229Z,24.90
2023-02-11T00:08:51.776Z,24.70
2023-02-11T00:11:22.619Z,25.00
2023-02-11T00:13:50.733Z,24.70
2023-02-11T00:16:21.692Z,25.20
2023-02-11T00:18:50.291Z,24.90
2023-02-11T00:21:22.603Z,24.90
2023-02-11T00:23:52.634Z,25.20
2023-02-11T00:26:23.699Z,25.00
2023-02-11T00:28:53.415Z,24.90
2023-02-11T00:31:24.120Z,25.10
2023-02-11T00:33:52.723Z,25.00
2023-02-11T00:36:24.809Z,24.90
2023-02-11T00:38:56.216Z,25.20
2023-02-11T00:41:25.940Z,25.10
2023-02-11T00:43:54.219Z,25.20
2023-02-11T00:46:22.776Z,25.20
2023-02-11T00:48:54.963Z,24.70
2023-02-11T00:51:23.121Z,25.00
2023-02-11T00:53:51.254Z,25.10
2023-02-11T00:56:21.197Z,25.10
2023-02-11T00:58:49.370Z,24.80
2023-02-11T01:01:17.478Z,25.20
2023-02-11T01:03:45.555Z,25.20
2023-02-11T01:06:14.022Z,25.20
2023-02-11T01:08:42.217Z,25.10
2023-02-11T01:11:15.930Z,25.30
2023-02-11T01:13:45.649Z,25.10
2023-02-11T01:16:14.950Z,24.90
2023-02-11T01:18:44.307Z,24.90
2023-02-11T01:21:12.506Z,24.90
2023-02-11T01:23:40.698Z,24.80
2023-02-11T01:26:08.912Z,24.80
2023-02-11T01:28:37.213Z,24.70
2023-02-11T01:31:06.907Z,24.50
2023-02-11T01:33:35.248Z,24.60
2023-02-11T01:36:05.252Z,24.60
2023-02-11T01:38:34.828Z,24.10
2023-02-11T01:41:05.434Z,24.50
2023-02-11T01:43:37.262Z,24.50
2023-02-11T01:46:31.559Z,24.20
2023-02-11T01:49:06.699Z,24.20
2023-02-11T01:51:39.363Z,24.40
2023-02-11T01:54:28.061Z,24.40
2023-02-11T01:57:17.537Z,25.10
2023-02-11T01:59:54.190Z,24.60
2023-02-11T02:02:29.319Z,24.50
2023-02-11T02:05:06.465Z,24.50
2023-02-11T02:07:42.738Z,24.50
2023-02-11T02:10:16.432Z,24.30
2023-02-11T02:12:44.525Z,24.00
2023-02-11T02:15:27.625Z,24.60
2023-02-11T02:18:03.790Z,24.70
2023-02-11T02:21:04.188Z,24.70
2023-02-11T02:24:17.251Z,24.90
2023-02-11T02:27:23.678Z,24.80
2023-02-11T02:30:11.537Z,25.10
2023-02-11T02:32:57.403Z,24.80
2023-02-11T02:35:34.006Z,24.80
2023-02-11T02:38:09.052Z,24.90
2023-02-11T02:40:46.195Z,25.10
2023-02-11T02:43:15.529Z,25.20
2023-02-11T02:45:43.538Z,25.30
2023-02-11T02:48:27.457Z,25.00
2023-02-11T02:51:07.783Z,25.40
2023-02-11T02:53:48.013Z,25.40
2023-02-11T02:56:26.004Z,25.60
2023-02-11T02:59:18.533Z,25.60
2023-02-11T03:02:00.225Z,25.80
2023-02-11T03:04:37.992Z,25.70
2023-02-11T03:07:19.030Z,25.10
2023-02-11T03:09:56.132Z,25.80
2023-02-11T03:12:25.945Z,26.10
2023-02-11T03:14:54.257Z,26.20
2023-02-11T03:17:23.921Z,26.20
2023-02-11T03:19:53.409Z,25.80
2023-02-11T03:22:26.888Z,26.30
2023-02-11T03:24:57.227Z,26.10
2023-02-11T03:27:34.134Z,26.00
2023-02-11T03:30:11.719Z,26.30
2023-02-11T03:32:44.170Z,26.40
2023-02-11T03:35:21.317Z,26.10
2023-02-11T03:37:56.431Z,26.20
2023-02-11T03:40:27.482Z,26.70
2023-02-11T03:43:02.364Z,26.60
2023-02-11T03:45:31.580Z,26.80
2023-02-11T03:48:05.112Z,26.50
2023-02-11T03:50:37.281Z,26.60
2023-02-11T03:53:06.426Z,26.90
2023-02-11T03:55:38.076Z,26.50
2023-02-11T03:58:06.421Z,26.80
2023-02-11T04:00:37.130Z,27.20
2023-02-11T04:03:05.809Z,27.00
2023-02-11T04:05:35.374Z,27.10
2023-02-11T04:08:03.596Z,27.20
2023-02-11T04:10:31.848Z,27.10
2023-02-11T04:12:59.898Z,27.30
2023-02-11T04:15:28.025Z,27.30
2023-02-11T04:17:56.173Z,27.30
2023-02-11T04:20:24.153Z,27.10
2023-02-11T04:22:53.448Z,27.50
2023-02-11T04:25:21.686Z,27.20
2023-02-11T04:27:49.656Z,27.00
2023-02-11T04:30:17.607Z,27.30
2023-02-11T04:32:45.732Z,26.40
2023-02-11T04:35:13.712Z,26.80
2023-02-11T04:37:41.843Z,26.60
2023-02-11T04:40:12.458Z,26.80
2023-02-11T04:42:40.578Z,26.60
2023-02-11T04:45:09.835Z,26.40
2023-02-11T04:47:38.043Z,26.50
2023-02-11T04:50:07.209Z,26.50
2023-02-11T04:52:35.219Z,26.60
2023-02-11T04:55:03.210Z,26.60
2023-02-11T04:57:32.491Z,26.40
2023-02-11T05:00:00.549Z,26.40
2023-02-11T05:02:28.588Z,26.60
2023-02-11T05:04:56.596Z,26.40
2023-02-11T05:07:24.828Z,26.50
2023-02-11T05:09:52.916Z,26.50
2023-02-11T05:12:21.771Z,26.70
2023-02-11T05:14:51.119Z,26.40
2023-02-11T05:17:19.368Z,26.50
2023-02-11T05:19:47.364Z,26.60
2023-02-11T05:22:15.326Z,26.60
2023-02-11T05:24:43.304Z,26.50
2023-02-11T05:27:11.294Z,26.50
2023-02-11T05:29:39.468Z,26.60
2023-02-11T05:32:09.013Z,26.60
2023-02-11T05:34:37.153Z,26.60
2023-02-11T05:37:05.125Z,26.70
2023-02-11T05:39:33.138Z,26.80
2023-02-11T05:42:01.096Z,27.00
2023-02-11T05:44:29.049Z,27.10
2023-02-11T05:46:57.167Z,27.00
2023-02-11T05:49:26.557Z,27.20
2023-02-11T05:51:54.571Z,26.90
2023-02-11T05:54:22.561Z,26.80
2023-02-11T05:56:50.561Z,26.90
2023-02-11T05:59:18.664Z,26.50
2023-02-11T06:01:46.661Z,26.80
2023-02-11T06:04:14.694Z,26.90
2023-02-11T06:06:44.012Z,26.90
2023-02-11T06:09:12.275Z,27.00
2023-02-11T06:11:40.370Z,27.00
2023-02-11T06:14:08.431Z,27.00
2023-02-11T06:16:36.418Z,27.30
2023-02-11T06:19:04.522Z,27.10
2023-02-11T06:21:43.335Z,27.30
2023-02-11T06:24:13.614Z,27.40
2023-02-11T06:26:41.770Z,27.40
2023-02-11T06:29:10.004Z,27.30
2023-02-11T06:31:39.694Z,27.10
2023-02-11T06:34:08.082Z,27.50
2023-02-11T06:36:36.980Z,27.30
2023-02-11T06:39:05.721Z,27.20
2023-02-11T06:41:35.201Z,27.30
2023-02-11T06:44:03.176Z,27.30
2023-02-11T06:46:31.270Z,27.50
2023-02-11T06:48:59.388Z,27.80
2023-02-11T06:51:28.218Z,27.50
2023-02-11T06:53:56.297Z,27.50
2023-02-11T06:56:27.298Z,27.80
2023-02-11T06:58:57.468Z,27.90
2023-02-11T07:01:27.591Z,27.60
2023-02-11T07:03:55.944Z,27.60
2023-02-11T07:06:27.901Z,27.60
2023-02-11T07:08:56.905Z,27.50
2023-02-11T07:11:27.554Z,27.80
2023-02-11T07:14:06.762Z,27.80
2023-02-11T07:16:35.424Z,27.80
2023-02-11T07:19:03.462Z,27.70
2023-02-11T07:21:31.810Z,27.80
2023-02-11T07:23:59.917Z,28.00
2023-02-11T07:26:28.904Z,27.30
2023-02-11T07:28:58.219Z,28.00
2023-02-11T07:31:28.472Z,28.00
2023-02-11T07:33:59.777Z,28.20
2023-02-11T07:36:30.218Z,27.70
2023-02-11T07:38:58.248Z,28.20
2023-02-11T07:41:27.474Z,28.10
2023-02-11T07:43:55.708Z,28.00
2023-02-11T07:46:27.223Z,28.00
2023-02-11T07:48:55.849Z,28.00
2023-02-11T07:51:27.168Z,28.10
2023-02-11T07:53:56.246Z,28.10
2023-02-11T07:56:24.848Z,28.30
2023-02-11T07:58:53.141Z,28.10
2023-02-11T08:01:27.135Z,27.80
2023-02-11T08:03:56.453Z,28.20
2023-02-11T08:06:27.250Z,28.10
2023-02-11T08:08:55.764Z,28.50
2023-02-11T08:11:25.717Z,28.20
2023-02-11T08:13:55.072Z,28.20
2023-02-11T08:16:27.017Z,28.40
2023-02-11T08:18:58.287Z,28.50
2023-02-11T08:21:26.925Z,28.40
2023-02-11T08:23:55.684Z,28.40
2023-02-11T08:26:27.448Z,28.30
2023-02-11T08:28:58.262Z,28.40
2023-02-11T08:31:33.234Z,28.40
2023-02-11T08:34:02.256Z,28.50
2023-02-11T08:36:32.867Z,28.00
2023-02-11T08:39:17.495Z,28.50
2023-02-11T08:41:48.619Z,28.40
2023-02-11T08:44:16.847Z,28.60
2023-02-11T08:46:46.229Z,28.70
2023-02-11T08:49:14.713Z,28.50
2023-02-11T08:51:43.108Z,28.60
2023-02-11T08:54:11.431Z,28.80
2023-02-11T08:56:39.965Z,28.60
2023-02-11T08:59:10.062Z,28.90
2023-02-11T09:01:38.159Z,28.50
2023-02-11T09:04:07.673Z,28.60
2023-02-11T09:06:35.766Z,28.80
2023-02-11T09:09:03.700Z,28.70
2023-02-11T09:11:34.988Z,28.70
2023-02-11T09:14:05.381Z,29.00
2023-02-11T09:16:36.593Z,28.90
2023-02-11T09:19:08.256Z,28.90
2023-02-11T09:21:36.321Z,28.80
2023-02-11T09:24:06.484Z,28.80
2023-02-11T09:26:36.822Z,28.90
2023-02-11T09:29:06.374Z,29.00
2023-02-11T09:31:35.500Z,28.90
2023-02-11T09:34:06.963Z,29.10
2023-02-11T09:36:39.184Z,29.10
2023-02-11T09:39:12.180Z,28.80
2023-02-11T09:42:10.710Z,29.20
2023-02-11T09:44:40.714Z,29.00
2023-02-11T09:47:26.489Z,29.10
2023-02-11T09:50:01.410Z,29.10
2023-02-11T09:52:39.134Z,29.10
2023-02-11T09:55:19.435Z,29.20
2023-02-11T09:57:47.659Z,29.20
2023-02-11T10:00:23.897Z,29.00
2023-02-11T10:03:30.759Z,29.20
2023-02-11T10:06:19.829Z,29.10
2023-02-11T10:09:02.997Z,29.00
2023-02-11T10:11:39.452Z,29.00
2023-02-11T10:14:25.363Z,28.80
2023-02-11T10:17:15.041Z,29.30
2023-02-11T10:19:58.057Z,29.40
2023-02-11T10:22:33.066Z,29.00
2023-02-11T10:25:19.093Z,28.80
2023-02-11T10:27:47.605Z,29.30
2023-02-11T10:30:24.980Z,24.70
2023-02-11T10:33:00.696Z,24.60
2023-02-11T10:35:28.723Z,26.80
2023-02-11T10:37:56.904Z,26.10
2023-02-11T10:40:28.610Z,26.30
2023-02-11T10:43:00.688Z,27.00
2023-02-11T10:45:34.708Z,27.70
2023-02-11T10:48:06.224Z,27.40
2023-02-11T10:50:36.898Z,26.30
2023-02-11T10:53:20.843Z,25.40
2023-02-11T10:55:57.160Z,25.30
2023-02-11T10:58:29.718Z,25.10
2023-02-11T11:01:00.309Z,25.50
2023-02-11T11:03:34.003Z,25.30
2023-02-11T11:06:05.170Z,25.70
2023-02-11T11:08:43.414Z,25.60
2023-02-11T11:11:14.826Z,25.40
2023-02-11T11:13:56.325Z,24.70
2023-02-11T11:16:26.830Z,25.30
2023-02-11T11:19:22.106Z,25.50
2023-02-11T11:21:52.543Z,25.60
2023-02-11T11:24:26.811Z,25.60
2023-02-11T11:27:00.874Z,25.60
2023-02-11T11:29:35.720Z,25.40
2023-02-11T11:32:07.059Z,25.80
2023-02-11T11:34:38.612Z,25.90
2023-02-11T11:37:13.684Z,25.90
2023-02-11T11:39:42.222Z,25.90
2023-02-11T11:42:28.453Z,25.90
2023-02-11T11:45:01.805Z,25.90
2023-02-11T11:47:37.594Z,26.00
2023-02-11T11:50:28.576Z,25.90
2023-02-11T11:53:04.929Z,26.00
2023-02-11T11:55:40.350Z,26.00
2023-02-11T11:58:16.133Z,25.90
2023-02-11T12:01:03.247Z,26.00
2023-02-11T12:04:16.952Z,26.00
2023-02-11T12:06:59.161Z,26.10
2023-02-11T12:09:37.985Z,26.30
2023-02-11T12:12:32.298Z,26.00
2023-02-11T12:15:20.608Z,26.00
2023-02-11T12:18:10.012Z,26.20
2023-02-11T12:20:55.189Z,26.40
2023-02-11T12:23:45.214Z,26.20
2023-02-11T12:26:18.349Z,26.20
2023-02-11T12:29:03.617Z,26.00
2023-02-11T12:31:49.914Z,26.20
2023-02-11T12:34:40.721Z,26.10
2023-02-11T12:37:21.314Z,26.20
2023-02-11T12:39:56.840Z,26.30
2023-02-11T12:43:13.305Z,26.40
2023-02-11T12:45:55.491Z,26.50
2023-02-11T12:48:45.177Z,26.40
2023-02-11T12:51:26.765Z,26.40
2023-02-11T12:54:16.676Z,26.50
2023-02-11T12:56:52.058Z,26.20
2023-02-11T12:59:34.612Z,26.10
2023-02-11T13:02:15.411Z,26.40
2023-02-11T13:04:51.504Z,26.10
2023-02-11T13:07:27.570Z,26.30
2023-02-11T13:10:02.044Z,25.90
2023-02-11T13:12:51.230Z,26.40
2023-02-11T13:15:19.684Z,26.40
2023-02-11T13:17:57.791Z,26.40
2023-02-11T13:20:41.085Z,26.70
2023-02-11T13:23:24.478Z,26.50
2023-02-11T13:26:00.049Z,26.30
2023-02-11T13:28:43.098Z,26.50
2023-02-11T13:31:14.770Z,26.30
2023-02-11T13:33:44.365Z,26.50
2023-02-11T13:36:25.855Z,26.20
2023-02-11T13:39:00.970Z,26.40
2023-02-11T13:41:34.625Z,26.60
2023-02-11T13:44:19.119Z,26.40
2023-02-11T13:47:03.120Z,25.90
2023-02-11T13:49:36.591Z,26.00
2023-02-11T13:52:16.578Z,27.10
2023-02-11T13:54:51.734Z,26.50
2023-02-11T13:57:37.578Z,26.40
2023-02-11T14:00:49.682Z,26.00
2023-02-11T14:03:55.852Z,26.50
2023-02-11T14:07:00.176Z,26.30
2023-02-11T14:09:41.714Z,26.60
2023-02-11T14:12:32.207Z,26.30
2023-02-11T14:15:22.543Z,26.30
2023-02-11T14:17:50.619Z,26.30
2023-02-11T14:20:43.995Z,26.20
2023-02-11T14:23:27.187Z,26.40
2023-02-11T14:26:26.427Z,26.40
2023-02-11T14:29:04.454Z,26.30
2023-02-11T14:31:41.778Z,26.40
2023-02-11T14:34:32.890Z,26.40
2023-02-11T14:37:15.715Z,26.40
2023-02-11T14:39:58.702Z,26.60
2023-02-11T14:42:30.858Z,26.50
2023-02-11T14:45:06.453Z,26.50
2023-02-11T14:50:11.548Z,26.40
2023-02-11T14:52:40.118Z,26.50
2023-02-11T14:55:23.323Z,26.40
2023-02-11T15:00:56.837Z,26.40
2023-02-11T15:03:32.012Z,26.10
2023-02-11T15:06:03.904Z,26.40
2023-02-11T15:08:33.347Z,26.40
2023-02-11T15:11:04.492Z,26.30
2023-02-11T15:13:34.064Z,26.00
2023-02-11T15:16:07.989Z,26.60
2023-02-11T15:18:40.580Z,26.30
2023-02-11T15:21:09.390Z,26.20
2023-02-11T15:23:38.839Z,26.40
2023-02-11T15:26:14.802Z,26.40
2023-02-11T15:28:51.806Z,26.40
2023-02-11T15:31:24.349Z,26.30
2023-02-11T15:33:53.262Z,26.30
2023-02-11T15:36:28.617Z,26.00
2023-02-11T15:39:20.631Z,26.40
2023-02-11T15:41:48.602Z,26.60
2023-02-11T15:44:31.438Z,26.50
2023-02-11T15:47:01.187Z,26.40
2023-02-11T15:49:29.295Z,26.20
2023-02-11T15:51:58.586Z,26.60
2023-02-11T15:54:31.950Z,26.40
2023-02-11T15:57:04.006Z,26.50
2023-02-11T15:59:38.212Z,27.30
2023-02-11T16:02:23.506Z,26.30
2023-02-11T16:04:55.085Z,26.20
2023-02-11T16:07:45.483Z,26.50
2023-02-11T16:10:24.238Z,26.40
2023-02-11T16:12:54.730Z,26.30
2023-02-11T16:15:48.060Z,26.10
2023-02-11T16:18:37.339Z,26.30
2023-02-11T16:21:15.635Z,26.40
2023-02-11T16:23:44.560Z,26.00
2023-02-11T16:26:22.930Z,26.30
2023-02-11T16:28:51.233Z,26.00
2023-02-11T16:31:20.280Z,26.30
2023-02-11T16:33:49.653Z,26.30
2023-02-11T16:36:18.100Z,26.20
2023-02-11T16:38:46.099Z,26.40
2023-02-11T16:41:14.271Z,26.60
2023-02-11T16:43:42.239Z,26.30
2023-02-11T16:46:15.674Z,26.40
2023-02-11T16:48:43.822Z,26.40
2023-02-11T16:51:13.923Z,26.10
2023-02-11T16:53:41.978Z,26.30
2023-02-11T16:56:16.948Z,26.40
2023-02-11T16:58:45.956Z,26.70
2023-02-11T17:01:14.453Z,26.70
2023-02-11T17:03:43.552Z,26.70
2023-02-11T17:06:14.579Z,26.20
2023-02-11T17:08:42.976Z,26.80
2023-02-11T17:11:10.993Z,26.80
2023-02-11T17:13:39.386Z,26.90
2023-02-11T17:16:13.492Z,26.40
2023-02-11T17:18:41.491Z,26.40
2023-02-11T17:21:09.936Z,26.80
2023-02-11T17:23:39.288Z,26.90
2023-02-11T17:26:07.854Z,26.70
2023-02-11T17:28:36.395Z,26.30
2023-02-11T17:31:09.580Z,26.70
2023-02-11T17:33:38.785Z,26.60
2023-02-11T17:36:08.693Z,26.90
2023-02-11T17:38:39.391Z,26.40
2023-02-11T17:41:07.616Z,26.90
2023-02-11T17:43:35.726Z,26.30
2023-02-11T17:46:08.415Z,26.70
2023-02-11T17:48:38.458Z,26.80
2023-02-11T17:51:08.761Z,26.80
2023-02-11T17:53:36.811Z,26.90
2023-02-11T17:56:07.220Z,26.70
2023-02-11T17:58:35.268Z,26.80
2023-02-11T18:01:03.391Z,26.40
2023-02-11T18:03:31.403Z,26.80
2023-02-11T18:06:01.476Z,26.70
2023-02-11T18:08:29.824Z,26.70
2023-02-11T18:10:58.023Z,26.70
2023-02-11T18:13:28.188Z,26.50
2023-02-11T18:15:56.365Z,27.00
2023-02-11T18:18:24.342Z,26.50
2023-02-11T18:20:58.603Z,26.30
2023-02-11T18:23:27.320Z,26.60
2023-02-11T18:25:55.385Z,26.10
2023-02-11T18:28:23.799Z,26.80
2023-02-11T18:30:59.494Z,26.50
2023-02-11T18:33:27.964Z,26.00
2023-02-11T18:35:56.259Z,26.80
2023-02-11T18:38:24.843Z,26.80
2023-02-11T18:40:53.293Z,26.80
2023-02-11T18:43:21.710Z,26.40
2023-02-11T18:45:51.460Z,26.50
2023-02-11T18:48:21.025Z,26.50
2023-02-11T18:50:49.095Z,26.90
2023-02-11T18:53:17.164Z,26.40
2023-02-11T18:55:47.218Z,26.40
2023-02-11T18:58:16.339Z,26.80
2023-02-11T19:00:47.827Z,26.70
2023-02-11T19:03:16.783Z,26.70
2023-02-11T19:05:48.231Z,26.80
2023-02-11T19:08:17.220Z,26.90
2023-02-11T19:10:49.237Z,26.70
2023-02-11T19:13:17.252Z,26.90
2023-02-11T19:15:47.231Z,26.50
2023-02-11T19:18:17.059Z,26.80
2023-02-11T19:20:46.382Z,26.80
2023-02-11T19:23:14.346Z,26.80
2023-02-11T19:25:47.596Z,26.90
2023-02-11T19:28:16.475Z,26.70
2023-02-11T19:30:44.524Z,26.90
2023-02-11T19:33:12.765Z,26.90
2023-02-11T19:35:41.092Z,26.70
2023-02-11T19:38:10.577Z,26.80
2023-02-11T19:40:38.512Z,26.40
2023-02-11T19:43:06.623Z,26.60
2023-02-11T19:45:34.613Z,26.60
2023-02-11T19:48:02.630Z,26.60
2023-02-11T19:50:30.823Z,26.80
2023-02-11T19:52:59.234Z,26.60
2023-02-11T19:55:28.794Z,26.60
2023-02-11T19:57:56.774Z,26.60
2023-02-11T20:00:25.115Z,26.90
2023-02-11T20:02:53.191Z,26.40
2023-02-11T20:05:21.290Z,26.10
2023-02-11T20:07:49.254Z,26.70
2023-02-11T20:10:17.800Z,26.60
2023-02-11T20:12:47.192Z,26.70
2023-02-11T20:15:15.417Z,26.50
2023-02-11T20:17:43.545Z,26.60
2023-02-11T20:20:12.840Z,26.60
2023-02-11T20:22:40.927Z,26.70
2023-02-11T20:25:10.999Z,26.90
2023-02-11T20:27:39.377Z,26.90
2023-02-11T20:30:11.590Z,26.50
2023-02-11T20:32:39.626Z,26.90
2023-02-11T20:35:10.236Z,26.90
2023-02-11T20:37:38.984Z,27.00
2023-02-11T20:40:08.620Z,26.50
2023-02-11T20:42:36.642Z,26.80
2023-02-11T20:45:05.003Z,27.20
2023-02-11T20:47:34.480Z,27.00
2023-02-11T20:50:02.514Z,26.50
2023-02-11T20:52:30.533Z,26.80
2023-02-11T20:54:59.609Z,26.10
2023-02-11T20:57:28.255Z,26.80
2023-02-11T20:59:56.311Z,26.90
2023-02-11T21:02:24.947Z,27.20
2023-02-11T21:04:54.439Z,26.90
2023-02-11T21:07:22.624Z,26.10
2023-02-11T21:09:51.043Z,26.90
2023-02-11T21:12:18.997Z,27.00
2023-02-11T21:14:47.154Z,27.00
2023-02-11T21:17:15.186Z,27.20
2023-02-11T21:19:43.980Z,26.80
2023-02-11T21:22:13.394Z,26.90
2023-02-11T21:24:41.425Z,27.00
2023-02-11T21:27:09.478Z,27.00
2023-02-11T21:29:52.683Z,27.30
2023-02-11T21:32:21.834Z,26.80
2023-02-11T21:34:49.758Z,27.40
2023-02-11T21:37:19.234Z,27.40
2023-02-11T21:39:47.317Z,27.50
2023-02-11T21:42:15.378Z,27.40
2023-02-11T21:44:43.348Z,26.90
2023-02-11T21:47:11.439Z,27.40
2023-02-11T21:49:39.459Z,27.40
2023-02-11T21:52:07.462Z,28.00
2023-02-11T21:54:36.864Z,26.60
2023-02-11T21:57:04.969Z,27.30
2023-02-11T21:59:33.054Z,27.30
2023-02-11T22:02:01.114Z,27.10
2023-02-11T22:04:29.228Z,27.50
2023-02-11T22:06:57.627Z,27.40
2023-02-11T22:09:25.961Z,27.50
2023-02-11T22:11:55.775Z,26.90
2023-02-11T22:14:24.633Z,26.80
2023-02-11T22:16:53.288Z,26.50
2023-02-11T22:19:21.463Z,25.50
2023-02-11T22:21:49.626Z,25.70
2023-02-11T22:24:17.922Z,25.80
2023-02-11T22:26:46.087Z,25.70
2023-02-11T22:29:15.626Z,25.90
2023-02-11T22:31:43.884Z,26.10
2023-02-11T22:34:11.970Z,26.20
2023-02-11T22:36:42.244Z,26.50
2023-02-11T22:39:14.156Z,26.60
2023-02-11T22:41:43.067Z,27.00
2023-02-11T22:44:11.957Z,27.20
2023-02-11T22:46:41.690Z,27.10
2023-02-11T22:49:11.293Z,27.10
2023-02-11T22:51:40.452Z,27.30
2023-02-11T22:54:13.680Z,27.10
2023-02-11T22:56:42.156Z,26.90
2023-02-11T22:59:13.759Z,27.00
2023-02-11T23:01:43.940Z,27.30
2023-02-11T23:04:14.455Z,27.20
2023-02-11T23:06:42.597Z,27.50
2023-02-11T23:09:13.551Z,27.20
2023-02-11T23:11:42.246Z,26.60
2023-02-11T23:14:12.164Z,26.90
2023-02-11T23:17:27.632Z,27.40
2023-02-11T23:19:34.355Z,27.40
2023-02-11T23:22:03.406Z,27.70
2023-02-11T23:24:31.775Z,27.70
2023-02-11T23:26:59.999Z,27.90
2023-02-11T23:29:28.226Z,28.30
2023-02-11T23:31:58.707Z,27.50
2023-02-11T23:34:27.440Z,28.20
2023-02-11T23:36:59.197Z,28.40
2023-02-11T23:39:27.309Z,28.20
2023-02-11T23:41:58.920Z,28.10
2023-02-11T23:44:27.310Z,28.60
2023-02-11T23:46:55.415Z,28.50
2023-02-11T23:49:23.512Z,28.60
2023-02-11T23:51:51.647Z,28.50
2023-02-11T23:54:21.181Z,28.70
2023-02-11T23:56:49.401Z,28.50
2023-02-11T23:59:17.712Z,28.50
